Boston, MA

10:42 PM EDT on July 30, 2016 (GMT -0400)
Charlestown | | Change Station

Elev 46 ft 42.37 °N, 71.06 °W | Updated 4 seconds ago

Mostly Cloudy
Mostly Cloudy
74.1 °F
Feels Like 74 °F
N
0.2
Wind Variable Wind from SE
Gusts 2.5 mph

Today
High -- | Low -- °F
--% Chance of Precip.
Yesterday
High -- | Low -- °F
Precip. -- in
Pressure 30.06 in
Visibility 10.0 miles
Clouds Mostly Cloudy 6000 ft
Mostly Cloudy 12000 ft
Heat Index 74 °F
Dew Point 69 °F
Humidity 85%
Rainfall 0.00 in
Snow Depth Not available.
5:35 AM 8:05 PM
Waning Crescent, 9% visible
METAR KBOS 310154Z 10007KT 10SM BKN060 BKN120 22/20 A3006 RMK AO2 SLP179 T02170200
Pressure 30.06 in
Visibility 10.0 miles
Clouds Mostly Cloudy 6000 ft
Mostly Cloudy 12000 ft
Heat Index 74 °F
Dew Point 69 °F
Humidity 85%
Rainfall 0.00 in
Snow Depth Not available.
5:35 AM 8:05 PM
Waning Crescent, 9% visible
METAR KBOS 310154Z 10007KT 10SM BKN060 BKN120 22/20 A3006 RMK AO2 SLP179 T02170200

10-Day Weather Forecast

Almanac

Astronomy

Jul. 30, 2016 Rise Set
Actual Time
Civil Twilight
Nautical Twilight
Astronomical Twilight
Moon
Length of Visible Light
Length of Day
Tomorrow will be .
, % of the Moon is Illuminated

Today's Extremes

State Highs State Lows

Community

WunderPhotos

Upload Photos

1,928,715 photos uploaded!

WunderBlog® & News

Nearby

Air Quality

  Air Quality AQ Index Pollutant
Not available.

Snow Depth

Station Depth Elevation

Earthquake Activity

City Distance Mag. Time & Date
Minimum magnitude displayed is 2.5.

Coastal Water Temperatures

Place Temperature

Stations

Nearby Weather Stations

Station Location Temp. Windchill Dew Point Humidity Wind Precip. Elev Updated Type
                   

Watches & Warnings

There are currently no watches in effect.